Flight Track Log - Related Links

Times and Time Zones

All times are in EDT time to prevent confusion due to time zone crossing. See the N42HN flight status page for this flight to view local times or setup timezone preferences in your user account.

Time Position Orientation Groundspeed Altitude Reporting Facility
EDT Latitude Longitude Course Direction KTS MPH feet Rate Location/Type
Fri 07:40:35 PM 35.2642 -101.9894 287° West 303 349 10,500  Level Albuquerque Center
Fri 07:41:36 PM 35.3000 -102.1125 290° West 319 367 13,600 2,780 Climbing Albuquerque Center
Fri 07:42:38 PM 35.3278 -102.2192 288° West 327 376 16,200 2,293 Climbing Albuquerque Center
Fri 07:43:00 PM 35.3806 -102.3314 295° West  Level FlightAware Approximate
Fri 07:43:39 PM 35.3583 -102.3289 289° West 337 388 18,300  Level Albuquerque Center
Fri 07:44:00 PM 35.4178 -102.4564 283° West  Level FlightAware Approximate
Fri 07:44:40 PM 35.3881 -102.4442 288° West 351 404 20,200  Level Albuquerque Center
Fri 07:45:41 PM 35.4217 -102.5628 289° West 363 418 21,900 1,561 Climbing Albuquerque Center
Fri 07:46:43 PM 35.4547 -102.6869 288° West 375 432 23,400 1,659 Climbing Albuquerque Center
Fri 07:47:44 PM 35.5206 -102.7878 309° West 375 432 25,300 1,672 Climbing Albuquerque Center
Fri 07:48:45 PM 35.5850 -102.8842 309° West 373 429 26,800 1,220 Climbing Albuquerque Center
Fri 07:49:47 PM 35.6503 -102.9914 307° West 377 434 27,800 976 Climbing Albuquerque Center
Fri 07:50:48 PM 35.7131 -103.1019 305° West 387 445 28,800 1,082 Climbing Albuquerque Center
Fri 07:51:49 PM 35.7706 -103.2453 296° West 401 461 30,000 1,220 Climbing Albuquerque Center
Fri 07:52:51 PM 35.8017 -103.3803 286° West 407 468 31,300 1,122 Climbing Albuquerque Center
Fri 07:53:52 PM 35.8317 -103.5131 286° West 402 463 32,300 738 Climbing Albuquerque Center
Fri 07:54:53 PM 35.8611 -103.6492 285° West 406 467 32,800 488 Climbing Albuquerque Center
Fri 07:55:55 PM 35.8928 -103.7889 286° West 417 480 33,300 780 Climbing Albuquerque Center
Fri 07:56:56 PM 35.9231 -103.9297 285° West 422 486 34,400 984 Climbing Albuquerque Center
Fri 07:57:57 PM 35.9528 -104.0639 285° West 411 473 35,300 780 Climbing Albuquerque Center
Fri 07:58:59 PM 35.9808 -104.2006 284° West 409 471 36,000 585 Climbing Albuquerque Center
Fri 08:00:00 PM 36.0114 -104.3364 286° West 409 471 36,500 590 Climbing Albuquerque Center
Fri 08:01:01 PM 36.0389 -104.4747 284° West 411 473 37,200 683 Climbing Albuquerque Center
Fri 08:02:03 PM 36.0697 -104.6072 286° West 405 466 37,900 537 Climbing Albuquerque Center
Fri 08:03:04 PM 36.1025 -104.7633 285° West 402 463 38,300 585 Climbing Albuquerque Center
Fri 08:04:06 PM 36.1311 -104.9003 285° West 406 467 39,100 780 Climbing Albuquerque Center
Fri 08:05:07 PM 36.1567 -105.0358 283° West 404 465 39,900 443 Climbing Albuquerque Center
Fri 08:06:08 PM 36.1847 -105.1631 285° West 389 448 40,000 49 Climbing Albuquerque Center
Fri 08:07:10 PM 36.2114 -105.2994 284° West 398 458 40,000  Level Albuquerque Center
Fri 08:08:11 PM 36.2400 -105.4381 284° West 409 471 40,000  Level Albuquerque Center
Fri 08:09:12 PM 36.2669 -105.5708 284° West 414 476 40,000  Level Albuquerque Center
Fri 08:10:14 PM 36.2961 -105.7122 284° West 421 484 40,000  Level Albuquerque Center
Fri 08:11:15 PM 36.3239 -105.8536 284° West 423 487 40,000  Level Albuquerque Center
Fri 08:12:17 PM 36.3533 -105.9967 284° West 427 491 40,000  Level Albuquerque Center
Fri 08:13:18 PM 36.3864 -106.1653 284° West 423 487 40,000  Level Albuquerque Center
Fri 08:14:20 PM 36.4136 -106.3033 284° West 423 487 40,000  Level Albuquerque Center
Fri 08:15:21 PM 36.4439 -106.4636 283° West 425 489 40,000  Level Albuquerque Center
Fri 08:16:23 PM 36.4714 -106.6019 284° West 430 495 40,000  Level Albuquerque Center
Fri 08:17:24 PM 36.4978 -106.7414 283° West 432 497 40,000  Level Albuquerque Center
Fri 08:18:26 PM 36.5289 -106.9056 283° West 436 502 40,000  Level Albuquerque Center
Fri 08:19:13 PM 36.5503 -107.0200 283° West 434 499 40,000  Level Denver Center
Fri 08:20:15 PM 36.5767 -107.1583 283° West 430 495 40,000  Level Denver Center
Fri 08:21:16 PM 36.6078 -107.3208 283° West 433 498 40,000  Level Denver Center
Fri 08:22:18 PM 36.6342 -107.4606 283° West 434 499 40,000  Level Denver Center
Fri 08:23:19 PM 36.6597 -107.5989 283° West 430 495 40,000  Level Denver Center
Fri 08:24:21 PM 36.6881 -107.7608 282° West 429 494 40,000  Level Denver Center
Fri 08:25:22 PM 36.7119 -107.8997 282° West 429 494 40,000  Level Denver Center
Fri 08:26:24 PM 36.7442 -108.0589 284° West 425 489 40,000  Level Denver Center
Fri 08:27:25 PM 36.7656 -108.1975 281° West 426 490 40,000  Level Denver Center
Fri 08:28:26 PM 36.7872 -108.3117 283° West 426 490 40,000  Level Denver Center
Fri 08:29:28 PM 36.8175 -108.4961 282° West 427 491 40,000  Level Denver Center
Fri 08:30:29 PM 36.8408 -108.6328 282° West 423 487 40,000  Level Denver Center
Fri 08:31:32 PM 36.8681 -108.7939 282° West 425 489 40,000  Level Denver Center
Fri 08:32:32 PM 36.8894 -108.9331 281° West 427 491 40,000  Level Denver Center
Fri 08:33:33 PM 36.9181 -109.0917 283° West 421 484 40,000  Level Denver Center
Fri 08:34:35 PM 36.9392 -109.2286 281° West 421 484 40,000  Level Denver Center
Fri 08:35:36 PM 36.9619 -109.3642 282° West 420 483 40,000  Level Denver Center
Fri 08:36:37 PM 36.9864 -109.5217 281° West 415 478 40,000  Level Denver Center
Fri 08:37:39 PM 37.0092 -109.6569 282° West 416 479 40,000  Level Denver Center
Fri 08:38:40 PM 37.0339 -109.8186 281° West 422 486 40,000  Level Denver Center
Fri 08:39:41 PM 37.0550 -109.9558 281° West 421 484 40,000  Level Denver Center
Fri 08:40:42 PM 37.0767 -110.0922 281° West 417 480 40,000  Level Denver Center
Fri 08:41:44 PM 37.1011 -110.2506 281° West 420 483 40,000  Level Denver Center
Fri 08:42:45 PM 37.1239 -110.3933 281° West 419 482 40,000  Level Denver Center
Fri 08:43:46 PM 37.1442 -110.5372 280° West 420 483 40,000  Level Denver Center
Fri 08:44:47 PM 37.1686 -110.6814 282° West 424 488 40,000  Level Denver Center
Fri 08:45:48 PM 37.1878 -110.8264 279° West 423 487 40,000  Level Denver Center
Fri 08:46:50 PM 37.2100 -110.9706 281° West 423 487 40,000  Level Denver Center
Fri 08:47:51 PM 37.2300 -111.1167 280° West 424 488 40,000  Level Denver Center
Fri 08:48:52 PM 37.2572 -111.2931 281° West 429 494 40,000  Level Denver Center
Fri 08:49:53 PM 37.2786 -111.4397 280° West 428 493 40,000  Level Denver Center
Fri 08:50:55 PM 37.2975 -111.5881 279° West 430 495 40,000  Level Denver Center
Fri 08:51:56 PM 37.3189 -111.7358 280° West 430 495 40,000  Level Denver Center
Fri 08:52:57 PM 37.3417 -111.8850 281° West 433 498 40,000  Level Denver Center
Fri 08:53:56 PM 37.3606 -112.0358 279° West 436 502 40,000  Level Los Angeles Center
Fri 08:55:09 PM 37.3794 -112.1850 279° West 435 501 40,000  Level Los Angeles Center
Fri 08:56:12 PM 37.4044 -112.3658 280° West 436 502 40,000  Level Los Angeles Center
Fri 08:57:13 PM 37.4356 -112.5150 285° West 442 509 40,000  Level Los Angeles Center
Fri 08:58:15 PM 37.5011 -112.6458 302° West 447 514 40,000  Level Los Angeles Center
Fri 08:59:27 PM 37.5706 -112.8258 296° West 438 504 40,000  Level Salt Lake Center
Fri 09:00:30 PM 37.6236 -112.9333 302° West 442 509 40,000  Level Los Angeles Center
Fri 09:01:33 PM 37.6967 -113.1047 298° West 455 524 40,000  Level Los Angeles Center
Fri 09:02:31 PM 37.7581 -113.2400 300° West 448 516 40,000  Level Salt Lake Center
Fri 09:03:33 PM 37.8167 -113.3783 298° West 447 514 40,000  Level Salt Lake Center
Fri 09:04:34 PM 37.8731 -113.5153 298° West 443 510 40,000  Level Salt Lake Center
Fri 09:05:36 PM 37.8894 -113.6986 277° West 435 501 40,000  Level Salt Lake Center
Fri 09:06:37 PM 37.9025 -113.8494 276° West 433 498 40,000  Level Salt Lake Center
Fri 09:07:38 PM 37.9206 -114.0008 279° West 435 501 40,000  Level Salt Lake Center
Fri 09:08:40 PM 37.9342 -114.1494 277° West 428 493 40,000  Level Salt Lake Center
Fri 09:09:41 PM 37.9519 -114.2989 279° West 429 494 40,000  Level Salt Lake Center
Fri 09:10:44 PM 37.9633 -114.4500 276° West 431 496 40,000  Level Salt Lake Center
Fri 09:11:44 PM 37.9769 -114.6000 277° West 430 495 40,000  Level Salt Lake Center
Fri 09:12:45 PM 37.9928 -114.7503 278° West 431 496 40,000  Level Salt Lake Center
Fri 09:13:47 PM 38.0100 -114.9303 277° West 430 495 40,000  Level Salt Lake Center
Fri 09:14:48 PM 38.0264 -115.0575 279° West 433 498 40,000  Level Salt Lake Center
Fri 09:15:49 PM 38.0425 -115.2397 276° West 435 501 40,000  Level Salt Lake Center
Fri 09:16:51 PM 38.0561 -115.3917 277° West 434 499 40,000  Level Salt Lake Center
Fri 09:17:52 PM 38.0683 -115.5456 276° West 436 502 40,000  Level Salt Lake Center
Fri 09:18:53 PM 38.0836 -115.6986 277° West 438 504 40,000  Level Salt Lake Center
Fri 09:19:55 PM 38.0964 -115.8514 276° West 437 503 40,000  Level Salt Lake Center
Fri 09:20:56 PM 38.1089 -116.0053 276° West 438 504 40,000  Level Salt Lake Center
Fri 09:21:57 PM 38.1219 -116.1581 276° West 437 503 40,000  Level Salt Lake Center
Fri 09:22:59 PM 38.1344 -116.3122 276° West 439 505 40,000  Level Salt Lake Center
Fri 09:24:00 PM 38.1469 -116.4664 276° West 439 505 40,000  Level Salt Lake Center
Fri 09:25:01 PM 38.1594 -116.6189 276° West 435 501 40,000  Level Salt Lake Center
Fri 09:26:02 PM 38.1731 -116.7994 276° West 429 494 40,000  Level Salt Lake Center
Fri 09:27:04 PM 38.1814 -116.9489 274° West 427 491 40,000  Level Salt Lake Center
Fri 09:28:05 PM 38.1844 -117.0958 272° West 423 487 40,000  Level Salt Lake Center
Fri 09:29:06 PM 38.1903 -117.2411 273° West 428 493 40,000  Level Salt Lake Center
Fri 09:30:07 PM 38.1922 -117.3900 271° West 430 495 40,000  Level Salt Lake Center
Fri 09:31:09 PM 38.1967 -117.5394 272° West 425 489 40,000  Level Salt Lake Center
Fri 09:32:10 PM 38.2011 -117.7203 272° West 426 490 40,000  Level Salt Lake Center
Fri 09:33:11 PM 38.2039 -117.8706 271° West 427 491 40,000  Level Salt Lake Center
Fri 09:34:12 PM 38.2075 -118.0225 272° West 428 493 40,000  Level Salt Lake Center
Fri 09:35:13 PM 38.2089 -118.1739 271° West 429 494 40,000  Level Salt Lake Center
Fri 09:36:15 PM 38.2133 -118.3256 272° West 429 494 40,000  Level Salt Lake Center
Fri 09:37:16 PM 38.2153 -118.4817 271° West 432 497 40,000  Level Salt Lake Center
Fri 09:38:38 PM 38.2181 -118.6978 271° West 434 499 40,000  Level Oakland Center
Fri 09:39:39 PM 38.2203 -118.8489 271° West 429 494 40,000  Level Oakland Center
Fri 09:40:40 PM 38.2214 -119.0011 271° West 427 491 40,000  Level Oakland Center
Fri 09:41:41 PM 38.2247 -119.1517 272° West 425 489 40,000 -49 Level Oakland Center
Fri 09:42:42 PM 38.2244 -119.3011 270° West 421 484 39,900 -1,377 Descending Oakland Center
Fri 09:43:43 PM 38.2272 -119.4608 271° West 420 483 37,200 -2,213 Descending Oakland Center
Fri 09:44:44 PM 38.2275 -119.6103 270° West 422 486 35,400 -2,066 Descending Oakland Center
Fri 09:45:45 PM 38.2292 -119.7597 271° West 423 487 33,000 -2,213 Descending Oakland Center
Fri 09:46:46 PM 38.2289 -119.9133 270° West 432 497 30,900 -2,066 Descending Oakland Center
Fri 09:47:47 PM 38.2300 -120.0703 271° West 444 511 28,800 -2,262 Descending Oakland Center
Fri 09:48:48 PM 38.2319 -120.2292 271° West 447 514 26,300 -1,869 Descending Oakland Center
Fri 09:49:49 PM 38.2314 -120.3872 270° West 446 513 25,000 -639 Descending Oakland Center
Fri 09:50:50 PM 38.2306 -120.5456 270° West 447 514 25,000  Level Oakland Center
Fri 09:51:51 PM 38.2306 -120.7039 270° West 446 513 25,000 -197 Level Oakland Center
Fri 09:52:52 PM 38.2306 -120.8614 270° West 444 511 24,600 -1,475 Descending Oakland Center
Fri 09:53:53 PM 38.2286 -121.0125 269° West 430 495 22,000 -3,000 Descending Oakland Center
Fri 09:54:42 PM 38.2333 -121.1500 273° West 418 481 19,100 -2,820 Descending Northern Cal TRACON
Fri 09:56:56 PM 38.2261 -121.4261 268° West 357 411 13,400 -2,598 Descending Oakland Center
Fri 09:57:56 PM 38.2264 -121.5519 270° West 331 381 10,700 -2,331 Descending Oakland Center
Fri 09:58:57 PM 38.2244 -121.6544 269° West 297 342 8,700 -1,820 Descending Oakland Center
Fri 09:59:58 PM 38.2231 -121.7494 269° West 275 316 7,000 -836 Descending Oakland Center
Fri 10:00:59 PM 38.2222 -121.8436 269° West 270 311 7,000 -738 Level Oakland Center
Fri 10:02:00 PM 38.2200 -121.9356 268° West 265 305 5,500 -1,033 Descending Oakland Center
Fri 10:03:01 PM 38.2203 -122.0194 270° West 244 281 4,900 -738 Descending Oakland Center
Fri 10:04:02 PM 38.2186 -122.0936 268° West 216 249 4,000 -443 Descending Oakland Center
Fri 10:05:03 PM 38.2167 -122.1753 268° West 198 228 4,000 -492 Level Oakland Center
Fri 10:06:04 PM 38.2308 -122.2294 288° West 181 208 3,000 -1,426 Descending Oakland Center
Fri 10:07:05 PM 38.2531 -122.2608 312° West 178 205 1,100 -1,869 Descending Oakland Center

Login

Don't have an account? Register now (free) for customized features, flight alerts, and more!